sensor_id;sensor_type;location;lat;lon;timestamp;P1;durP1;ratioP1;P2;durP2;ratioP2
64637;SDS011;51049;45.046;38.950;2023-06-24T00:01:23;10.45;;;3.83;;
64637;SDS011;51049;45.046;38.950;2023-06-24T00:03:49;9.68;;;3.63;;
64637;SDS011;51049;45.046;38.950;2023-06-24T00:06:21;14.90;;;3.80;;
64637;SDS011;51049;45.046;38.950;2023-06-24T00:08:51;8.30;;;3.85;;
64637;SDS011;51049;45.046;38.950;2023-06-24T00:11:26;10.20;;;3.53;;
64637;SDS011;51049;45.046;38.950;2023-06-24T00:13:53;17.38;;;4.60;;
64637;SDS011;51049;45.046;38.950;2023-06-24T00:16:19;18.15;;;3.70;;
64637;SDS011;51049;45.046;38.950;2023-06-24T00:18:51;16.02;;;4.45;;
64637;SDS011;51049;45.046;38.950;2023-06-24T00:21:18;13.48;;;4.28;;
64637;SDS011;51049;45.046;38.950;2023-06-24T00:23:45;12.52;;;3.55;;
64637;SDS011;51049;45.046;38.950;2023-06-24T00:26:13;13.95;;;4.10;;
64637;SDS011;51049;45.046;38.950;2023-06-24T00:28:39;6.90;;;3.78;;
64637;SDS011;51049;45.046;38.950;2023-06-24T00:31:05;12.63;;;3.80;;
64637;SDS011;51049;45.046;38.950;2023-06-24T00:33:31;10.25;;;3.85;;
64637;SDS011;51049;45.046;38.950;2023-06-24T00:36:01;11.73;;;4.03;;
64637;SDS011;51049;45.046;38.950;2023-06-24T00:38:27;9.40;;;3.85;;
64637;SDS011;51049;45.046;38.950;2023-06-24T00:40:58;17.52;;;3.80;;
64637;SDS011;51049;45.046;38.950;2023-06-24T00:43:24;14.80;;;3.97;;
64637;SDS011;51049;45.046;38.950;2023-06-24T00:45:50;8.82;;;3.95;;
64637;SDS011;51049;45.046;38.950;2023-06-24T00:48:18;11.00;;;3.78;;
64637;SDS011;51049;45.046;38.950;2023-06-24T00:50:46;8.95;;;3.65;;
64637;SDS011;51049;45.046;38.950;2023-06-24T00:53:12;12.10;;;3.80;;
64637;SDS011;51049;45.046;38.950;2023-06-24T00:55:38;8.57;;;3.40;;
64637;SDS011;51049;45.046;38.950;2023-06-24T00:58:05;8.35;;;3.17;;
64637;SDS011;51049;45.046;38.950;2023-06-24T01:00:31;13.77;;;4.20;;
64637;SDS011;51049;45.046;38.950;2023-06-24T01:02:59;8.93;;;3.72;;
64637;SDS011;51049;45.046;38.950;2023-06-24T01:05:26;15.80;;;4.03;;
64637;SDS011;51049;45.046;38.950;2023-06-24T01:07:54;12.20;;;3.88;;
64637;SDS011;51049;45.046;38.950;2023-06-24T01:10:21;13.40;;;4.07;;
64637;SDS011;51049;45.046;38.950;2023-06-24T01:12:48;13.10;;;4.18;;
64637;SDS011;51049;45.046;38.950;2023-06-24T01:15:15;15.60;;;3.90;;
64637;SDS011;51049;45.046;38.950;2023-06-24T01:18:02;8.82;;;3.72;;
64637;SDS011;51049;45.046;38.950;2023-06-24T01:40:02;9.70;;;3.85;;
64637;SDS011;51049;45.046;38.950;2023-06-24T01:42:41;9.55;;;4.13;;
64637;SDS011;51049;45.046;38.950;2023-06-24T01:45:16;9.95;;;3.80;;
64637;SDS011;51049;45.046;38.950;2023-06-24T01:47:45;14.30;;;4.20;;
64637;SDS011;51049;45.046;38.950;2023-06-24T01:50:14;15.38;;;4.82;;
64637;SDS011;51049;45.046;38.950;2023-06-24T01:52:45;12.02;;;4.30;;
64637;SDS011;51049;45.046;38.950;2023-06-24T01:55:14;20.52;;;4.72;;
64637;SDS011;51049;45.046;38.950;2023-06-24T01:57:46;10.25;;;4.22;;
64637;SDS011;51049;45.046;38.950;2023-06-24T02:00:15;13.57;;;4.45;;
64637;SDS011;51049;45.046;38.950;2023-06-24T02:02:47;21.95;;;4.72;;
64637;SDS011;51049;45.046;38.950;2023-06-24T02:05:16;13.00;;;4.13;;
64637;SDS011;51049;45.046;38.950;2023-06-24T02:07:44;10.18;;;4.00;;
64637;SDS011;51049;45.046;38.950;2023-06-24T02:10:13;13.40;;;4.47;;
64637;SDS011;51049;45.046;38.950;2023-06-24T02:12:40;9.98;;;3.90;;
64637;SDS011;51049;45.046;38.950;2023-06-24T02:15:07;13.15;;;4.05;;
64637;SDS011;51049;45.046;38.950;2023-06-24T02:17:34;12.80;;;4.38;;
64637;SDS011;51049;45.046;38.950;2023-06-24T02:20:03;10.63;;;4.38;;
64637;SDS011;51049;45.046;38.950;2023-06-24T02:22:34;12.85;;;4.53;;
64637;SDS011;51049;45.046;38.950;2023-06-24T02:25:01;13.93;;;4.95;;
64637;SDS011;51049;45.046;38.950;2023-06-24T02:27:31;16.05;;;4.75;;
64637;SDS011;51049;45.046;38.950;2023-06-24T02:29:58;15.77;;;4.30;;
64637;SDS011;51049;45.046;38.950;2023-06-24T02:32:26;12.20;;;4.43;;
64637;SDS011;51049;45.046;38.950;2023-06-24T02:34:52;13.07;;;4.32;;
64637;SDS011;51049;45.046;38.950;2023-06-24T02:37:20;15.55;;;4.50;;
64637;SDS011;51049;45.046;38.950;2023-06-24T02:39:46;14.93;;;4.65;;
64637;SDS011;51049;45.046;38.950;2023-06-24T02:42:12;13.45;;;4.20;;
64637;SDS011;51049;45.046;38.950;2023-06-24T02:44:39;9.85;;;3.85;;
64637;SDS011;51049;45.046;38.950;2023-06-24T02:47:06;11.00;;;4.07;;
64637;SDS011;51049;45.046;38.950;2023-06-24T02:49:36;15.20;;;4.55;;
64637;SDS011;51049;45.046;38.950;2023-06-24T02:52:04;8.98;;;4.10;;
64637;SDS011;51049;45.046;38.950;2023-06-24T02:54:32;14.48;;;4.57;;
64637;SDS011;51049;45.046;38.950;2023-06-24T02:57:31;14.40;;;4.35;;
64637;SDS011;51049;45.046;38.950;2023-06-24T03:00:24;9.82;;;3.78;;
64637;SDS011;51049;45.046;38.950;2023-06-24T03:03:14;15.10;;;3.38;;
64637;SDS011;51049;45.046;38.950;2023-06-24T03:05:49;9.10;;;3.60;;
64637;SDS011;51049;45.046;38.950;2023-06-24T03:08:18;13.48;;;3.72;;
64637;SDS011;51049;45.046;38.950;2023-06-24T03:10:47;10.38;;;3.00;;
64637;SDS011;51049;45.046;38.950;2023-06-24T03:13:18;11.73;;;3.95;;
64637;SDS011;51049;45.046;38.950;2023-06-24T03:15:50;7.32;;;3.25;;
64637;SDS011;51049;45.046;38.950;2023-06-24T03:18:16;9.13;;;3.20;;
64637;SDS011;51049;45.046;38.950;2023-06-24T03:20:45;13.43;;;3.50;;
64637;SDS011;51049;45.046;38.950;2023-06-24T03:23:16;11.13;;;3.10;;
64637;SDS011;51049;45.046;38.950;2023-06-24T03:25:43;9.13;;;3.55;;
64637;SDS011;51049;45.046;38.950;2023-06-24T03:28:10;9.98;;;3.33;;
64637;SDS011;51049;45.046;38.950;2023-06-24T03:30:42;9.90;;;3.55;;
64637;SDS011;51049;45.046;38.950;2023-06-24T03:33:11;11.93;;;4.43;;
64637;SDS011;51049;45.046;38.950;2023-06-24T03:35:43;11.38;;;4.38;;
64637;SDS011;51049;45.046;38.950;2023-06-24T03:38:12;9.57;;;3.30;;
64637;SDS011;51049;45.046;38.950;2023-06-24T03:40:39;11.75;;;3.90;;
64637;SDS011;51049;45.046;38.950;2023-06-24T03:43:05;12.18;;;4.00;;
64637;SDS011;51049;45.046;38.950;2023-06-24T03:45:32;8.70;;;3.40;;
64637;SDS011;51049;45.046;38.950;2023-06-24T03:47:58;11.50;;;3.92;;
64637;SDS011;51049;45.046;38.950;2023-06-24T03:50:24;18.58;;;3.90;;
64637;SDS011;51049;45.046;38.950;2023-06-24T03:52:51;10.65;;;4.90;;
64637;SDS011;51049;45.046;38.950;2023-06-24T03:55:18;11.38;;;4.00;;
64637;SDS011;51049;45.046;38.950;2023-06-24T03:57:44;20.10;;;3.80;;
64637;SDS011;51049;45.046;38.950;2023-06-24T04:00:10;13.23;;;3.88;;
64637;SDS011;51049;45.046;38.950;2023-06-24T04:02:44;17.88;;;4.32;;
64637;SDS011;51049;45.046;38.950;2023-06-24T04:05:10;13.50;;;3.72;;
64637;SDS011;51049;45.046;38.950;2023-06-24T04:07:36;15.75;;;4.00;;
64637;SDS011;51049;45.046;38.950;2023-06-24T04:10:04;17.00;;;4.22;;
64637;SDS011;51049;45.046;38.950;2023-06-24T04:12:36;7.70;;;3.92;;
64637;SDS011;51049;45.046;38.950;2023-06-24T04:15:02;11.48;;;4.20;;
64637;SDS011;51049;45.046;38.950;2023-06-24T04:17:31;16.30;;;3.72;;
64637;SDS011;51049;45.046;38.950;2023-06-24T04:19:58;14.60;;;4.32;;
64637;SDS011;51049;45.046;38.950;2023-06-24T04:22:25;15.27;;;3.97;;
64637;SDS011;51049;45.046;38.950;2023-06-24T04:24:56;17.02;;;4.28;;
64637;SDS011;51049;45.046;38.950;2023-06-24T04:27:23;16.38;;;4.85;;
64637;SDS011;51049;45.046;38.950;2023-06-24T04:29:49;8.70;;;4.05;;
64637;SDS011;51049;45.046;38.950;2023-06-24T04:32:15;14.55;;;4.10;;
64637;SDS011;51049;45.046;38.950;2023-06-24T04:34:41;15.82;;;4.72;;
64637;SDS011;51049;45.046;38.950;2023-06-24T04:37:07;13.85;;;4.88;;
64637;SDS011;51049;45.046;38.950;2023-06-24T04:39:33;12.10;;;4.43;;
64637;SDS011;51049;45.046;38.950;2023-06-24T04:41:59;11.75;;;4.47;;
64637;SDS011;51049;45.046;38.950;2023-06-24T04:44:25;17.10;;;4.43;;
64637;SDS011;51049;45.046;38.950;2023-06-24T04:46:51;11.98;;;3.70;;
64637;SDS011;51049;45.046;38.950;2023-06-24T04:49:18;16.08;;;3.88;;
64637;SDS011;51049;45.046;38.950;2023-06-24T04:51:44;12.95;;;3.63;;
64637;SDS011;51049;45.046;38.950;2023-06-24T04:54:10;8.25;;;3.20;;
64637;SDS011;51049;45.046;38.950;2023-06-24T04:56:38;10.85;;;3.83;;
64637;SDS011;51049;45.046;38.950;2023-06-24T04:59:04;14.25;;;3.53;;
64637;SDS011;51049;45.046;38.950;2023-06-24T05:01:30;13.93;;;3.45;;
64637;SDS011;51049;45.046;38.950;2023-06-24T05:03:56;9.20;;;3.33;;
64637;SDS011;51049;45.046;38.950;2023-06-24T05:06:22;6.65;;;3.10;;
64637;SDS011;51049;45.046;38.950;2023-06-24T05:08:49;13.38;;;3.47;;
64637;SDS011;51049;45.046;38.950;2023-06-24T05:11:14;18.65;;;3.35;;
64637;SDS011;51049;45.046;38.950;2023-06-24T05:13:40;8.30;;;2.88;;
64637;SDS011;51049;45.046;38.950;2023-06-24T05:16:06;11.43;;;3.00;;
64637;SDS011;51049;45.046;38.950;2023-06-24T05:18:32;11.55;;;3.10;;
64637;SDS011;51049;45.046;38.950;2023-06-24T05:20:58;8.35;;;3.63;;
64637;SDS011;51049;45.046;38.950;2023-06-24T05:23:24;8.35;;;2.95;;
64637;SDS011;51049;45.046;38.950;2023-06-24T05:25:50;9.98;;;3.20;;
64637;SDS011;51049;45.046;38.950;2023-06-24T05:28:16;14.80;;;3.72;;
64637;SDS011;51049;45.046;38.950;2023-06-24T05:30:44;9.65;;;3.40;;
64637;SDS011;51049;45.046;38.950;2023-06-24T05:33:10;16.35;;;3.50;;
64637;SDS011;51049;45.046;38.950;2023-06-24T05:35:36;16.60;;;3.40;;
64637;SDS011;51049;45.046;38.950;2023-06-24T05:38:07;20.58;;;4.00;;
64637;SDS011;51049;45.046;38.950;2023-06-24T05:40:33;12.45;;;3.33;;
64637;SDS011;51049;45.046;38.950;2023-06-24T05:42:59;11.23;;;3.78;;
64637;SDS011;51049;45.046;38.950;2023-06-24T05:45:26;16.17;;;3.65;;
64637;SDS011;51049;45.046;38.950;2023-06-24T05:47:52;14.90;;;3.80;;
64637;SDS011;51049;45.046;38.950;2023-06-24T05:50:18;10.00;;;2.90;;
64637;SDS011;51049;45.046;38.950;2023-06-24T05:52:44;10.73;;;3.30;;
64637;SDS011;51049;45.046;38.950;2023-06-24T05:55:10;9.88;;;3.50;;
64637;SDS011;51049;45.046;38.950;2023-06-24T05:57:39;11.88;;;3.90;;
64637;SDS011;51049;45.046;38.950;2023-06-24T06:00:05;10.40;;;3.78;;
64637;SDS011;51049;45.046;38.950;2023-06-24T06:02:37;13.55;;;3.60;;
64637;SDS011;51049;45.046;38.950;2023-06-24T06:05:03;12.93;;;3.35;;
64637;SDS011;51049;45.046;38.950;2023-06-24T06:07:29;8.85;;;3.95;;
64637;SDS011;51049;45.046;38.950;2023-06-24T06:09:55;10.00;;;3.53;;
64637;SDS011;51049;45.046;38.950;2023-06-24T06:12:21;7.15;;;3.63;;
64637;SDS011;51049;45.046;38.950;2023-06-24T06:14:47;11.23;;;3.45;;
64637;SDS011;51049;45.046;38.950;2023-06-24T06:17:13;10.25;;;3.47;;
64637;SDS011;51049;45.046;38.950;2023-06-24T06:19:40;10.52;;;3.78;;
64637;SDS011;51049;45.046;38.950;2023-06-24T06:22:07;7.75;;;3.65;;
64637;SDS011;51049;45.046;38.950;2023-06-24T06:24:33;7.53;;;3.65;;
64637;SDS011;51049;45.046;38.950;2023-06-24T06:26:59;7.22;;;3.55;;
64637;SDS011;51049;45.046;38.950;2023-06-24T06:29:25;12.52;;;3.72;;
64637;SDS011;51049;45.046;38.950;2023-06-24T06:31:51;9.68;;;3.08;;
64637;SDS011;51049;45.046;38.950;2023-06-24T06:34:18;6.65;;;3.00;;
64637;SDS011;51049;45.046;38.950;2023-06-24T06:36:45;7.38;;;3.33;;
64637;SDS011;51049;45.046;38.950;2023-06-24T06:39:11;6.22;;;2.78;;
64637;SDS011;51049;45.046;38.950;2023-06-24T06:41:37;13.30;;;3.50;;
64637;SDS011;51049;45.046;38.950;2023-06-24T06:44:03;11.55;;;3.20;;
64637;SDS011;51049;45.046;38.950;2023-06-24T06:46:29;8.90;;;3.80;;
64637;SDS011;51049;45.046;38.950;2023-06-24T06:48:55;8.63;;;3.55;;
64637;SDS011;51049;45.046;38.950;2023-06-24T06:51:21;6.22;;;2.90;;
64637;SDS011;51049;45.046;38.950;2023-06-24T06:53:49;9.52;;;3.15;;
64637;SDS011;51049;45.046;38.950;2023-06-24T06:56:21;9.30;;;2.85;;
64637;SDS011;51049;45.046;38.950;2023-06-24T06:58:49;6.45;;;2.80;;
64637;SDS011;51049;45.046;38.950;2023-06-24T07:01:17;8.48;;;2.95;;
64637;SDS011;51049;45.046;38.950;2023-06-24T07:03:43;7.93;;;3.38;;
64637;SDS011;51049;45.046;38.950;2023-06-24T07:06:09;9.00;;;3.22;;
64637;SDS011;51049;45.046;38.950;2023-06-24T07:08:35;7.55;;;3.08;;
64637;SDS011;51049;45.046;38.950;2023-06-24T07:11:03;7.47;;;3.10;;
64637;SDS011;51049;45.046;38.950;2023-06-24T07:13:29;12.50;;;3.55;;
64637;SDS011;51049;45.046;38.950;2023-06-24T07:15:55;7.95;;;3.25;;
64637;SDS011;51049;45.046;38.950;2023-06-24T07:18:21;7.20;;;3.17;;
64637;SDS011;51049;45.046;38.950;2023-06-24T07:20:47;8.82;;;3.30;;
64637;SDS011;51049;45.046;38.950;2023-06-24T07:23:14;10.60;;;2.90;;
64637;SDS011;51049;45.046;38.950;2023-06-24T07:25:40;8.13;;;2.75;;
64637;SDS011;51049;45.046;38.950;2023-06-24T07:28:06;5.25;;;2.45;;
64637;SDS011;51049;45.046;38.950;2023-06-24T07:30:31;6.13;;;2.65;;
64637;SDS011;51049;45.046;38.950;2023-06-24T07:32:57;5.10;;;2.17;;
64637;SDS011;51049;45.046;38.950;2023-06-24T07:35:23;8.27;;;2.72;;
64637;SDS011;51049;45.046;38.950;2023-06-24T07:37:49;5.05;;;2.33;;
64637;SDS011;51049;45.046;38.950;2023-06-24T07:40:15;11.18;;;2.45;;
64637;SDS011;51049;45.046;38.950;2023-06-24T07:42:41;8.27;;;3.28;;
64637;SDS011;51049;45.046;38.950;2023-06-24T07:45:07;5.70;;;2.38;;
64637;SDS011;51049;45.046;38.950;2023-06-24T07:47:33;4.10;;;2.38;;
64637;SDS011;51049;45.046;38.950;2023-06-24T07:50:00;6.70;;;2.70;;
64637;SDS011;51049;45.046;38.950;2023-06-24T07:52:26;10.43;;;2.90;;
64637;SDS011;51049;45.046;38.950;2023-06-24T07:54:52;10.50;;;2.72;;
64637;SDS011;51049;45.046;38.950;2023-06-24T07:57:18;9.70;;;3.28;;
64637;SDS011;51049;45.046;38.950;2023-06-24T07:59:44;6.97;;;3.00;;
64637;SDS011;51049;45.046;38.950;2023-06-24T08:02:10;5.82;;;2.75;;
64637;SDS011;51049;45.046;38.950;2023-06-24T08:04:36;11.05;;;3.45;;
64637;SDS011;51049;45.046;38.950;2023-06-24T08:07:02;4.50;;;2.40;;
64637;SDS011;51049;45.046;38.950;2023-06-24T08:09:29;7.13;;;2.20;;
64637;SDS011;51049;45.046;38.950;2023-06-24T08:11:55;6.95;;;2.10;;
64637;SDS011;51049;45.046;38.950;2023-06-24T08:14:21;5.35;;;2.10;;
64637;SDS011;51049;45.046;38.950;2023-06-24T08:16:47;8.98;;;2.92;;
64637;SDS011;51049;45.046;38.950;2023-06-24T08:19:13;7.38;;;2.40;;
64637;SDS011;51049;45.046;38.950;2023-06-24T08:21:39;5.45;;;2.20;;
64637;SDS011;51049;45.046;38.950;2023-06-24T08:24:06;4.80;;;2.38;;
64637;SDS011;51049;45.046;38.950;2023-06-24T08:26:32;4.68;;;2.00;;
64637;SDS011;51049;45.046;38.950;2023-06-24T08:28:58;10.43;;;2.20;;
64637;SDS011;51049;45.046;38.950;2023-06-24T08:31:25;6.45;;;2.40;;
64637;SDS011;51049;45.046;38.950;2023-06-24T08:33:52;8.35;;;2.10;;
64637;SDS011;51049;45.046;38.950;2023-06-24T08:36:18;7.88;;;1.92;;
64637;SDS011;51049;45.046;38.950;2023-06-24T08:38:44;5.35;;;1.85;;
64637;SDS011;51049;45.046;38.950;2023-06-24T08:41:11;6.53;;;1.80;;
64637;SDS011;51049;45.046;38.950;2023-06-24T08:43:37;10.80;;;2.35;;
64637;SDS011;51049;45.046;38.950;2023-06-24T08:46:05;5.22;;;2.10;;
64637;SDS011;51049;45.046;38.950;2023-06-24T08:48:31;7.93;;;2.47;;
64637;SDS011;51049;45.046;38.950;2023-06-24T08:51:05;8.55;;;2.33;;
64637;SDS011;51049;45.046;38.950;2023-06-24T08:53:33;4.75;;;2.38;;
64637;SDS011;51049;45.046;38.950;2023-06-24T08:56:00;9.98;;;2.55;;
64637;SDS011;51049;45.046;38.950;2023-06-24T08:58:26;6.80;;;2.30;;
64637;SDS011;51049;45.046;38.950;2023-06-24T09:00:52;4.78;;;2.30;;
64637;SDS011;51049;45.046;38.950;2023-06-24T09:03:19;8.48;;;2.65;;
64637;SDS011;51049;45.046;38.950;2023-06-24T09:05:45;9.05;;;2.47;;
64637;SDS011;51049;45.046;38.950;2023-06-24T09:08:11;6.78;;;2.35;;
64637;SDS011;51049;45.046;38.950;2023-06-24T09:10:37;4.93;;;2.65;;
64637;SDS011;51049;45.046;38.950;2023-06-24T09:13:04;4.63;;;2.20;;
64637;SDS011;51049;45.046;38.950;2023-06-24T09:15:31;6.53;;;2.20;;
64637;SDS011;51049;45.046;38.950;2023-06-24T09:17:58;6.40;;;2.50;;
64637;SDS011;51049;45.046;38.950;2023-06-24T09:20:27;9.25;;;2.45;;
64637;SDS011;51049;45.046;38.950;2023-06-24T09:23:00;5.85;;;2.15;;
64637;SDS011;51049;45.046;38.950;2023-06-24T09:25:28;6.35;;;2.40;;
64637;SDS011;51049;45.046;38.950;2023-06-24T09:27:55;6.88;;;2.40;;
64637;SDS011;51049;45.046;38.950;2023-06-24T09:30:24;5.97;;;2.38;;
64637;SDS011;51049;45.046;38.950;2023-06-24T09:32:51;5.88;;;2.05;;
64637;SDS011;51049;45.046;38.950;2023-06-24T09:35:27;7.05;;;2.35;;
64637;SDS011;51049;45.046;38.950;2023-06-24T09:37:54;4.38;;;2.28;;
64637;SDS011;51049;45.046;38.950;2023-06-24T09:40:21;4.72;;;2.10;;
64637;SDS011;51049;45.046;38.950;2023-06-24T09:42:53;7.82;;;2.75;;
64637;SDS011;51049;45.046;38.950;2023-06-24T09:45:24;7.20;;;3.63;;
64637;SDS011;51049;45.046;38.950;2023-06-24T09:47:52;8.95;;;2.38;;
64637;SDS011;51049;45.046;38.950;2023-06-24T09:50:18;8.40;;;2.70;;
64637;SDS011;51049;45.046;38.950;2023-06-24T09:52:45;6.38;;;2.50;;
64637;SDS011;51049;45.046;38.950;2023-06-24T09:55:12;4.20;;;2.28;;
64637;SDS011;51049;45.046;38.950;2023-06-24T09:57:41;4.97;;;2.33;;
64637;SDS011;51049;45.046;38.950;2023-06-24T10:00:11;5.38;;;2.40;;
64637;SDS011;51049;45.046;38.950;2023-06-24T10:02:40;7.37;;;2.33;;
64637;SDS011;51049;45.046;38.950;2023-06-24T10:05:07;4.03;;;2.00;;
64637;SDS011;51049;45.046;38.950;2023-06-24T10:07:34;4.43;;;2.13;;
64637;SDS011;51049;45.046;38.950;2023-06-24T10:10:02;4.72;;;2.28;;
64637;SDS011;51049;45.046;38.950;2023-06-24T10:12:29;4.70;;;2.10;;
64637;SDS011;51049;45.046;38.950;2023-06-24T10:14:57;5.95;;;2.30;;
64637;SDS011;51049;45.046;38.950;2023-06-24T10:17:25;8.85;;;2.60;;
64637;SDS011;51049;45.046;38.950;2023-06-24T10:19:51;5.45;;;2.20;;
64637;SDS011;51049;45.046;38.950;2023-06-24T10:22:24;3.60;;;1.77;;
64637;SDS011;51049;45.046;38.950;2023-06-24T10:24:54;5.93;;;2.50;;
64637;SDS011;51049;45.046;38.950;2023-06-24T10:27:22;7.22;;;2.30;;
64637;SDS011;51049;45.046;38.950;2023-06-24T10:29:49;11.32;;;2.47;;
64637;SDS011;51049;45.046;38.950;2023-06-24T10:32:17;4.03;;;1.95;;
64637;SDS011;51049;45.046;38.950;2023-06-24T10:34:44;5.75;;;2.30;;
64637;SDS011;51049;45.046;38.950;2023-06-24T10:39:54;6.00;;;2.03;;
64637;SDS011;51049;45.046;38.950;2023-06-24T10:42:27;5.28;;;2.30;;
64637;SDS011;51049;45.046;38.950;2023-06-24T10:47:38;4.05;;;2.00;;
64637;SDS011;51049;45.046;38.950;2023-06-24T10:50:05;4.03;;;1.90;;
64637;SDS011;51049;45.046;38.950;2023-06-24T10:52:32;3.75;;;1.73;;
64637;SDS011;51049;45.046;38.950;2023-06-24T10:55:02;4.47;;;2.13;;
64637;SDS011;51049;45.046;38.950;2023-06-24T10:57:29;4.60;;;2.10;;
64637;SDS011;51049;45.046;38.950;2023-06-24T10:59:56;7.05;;;1.85;;
64637;SDS011;51049;45.046;38.950;2023-06-24T11:02:23;4.07;;;1.95;;
64637;SDS011;51049;45.046;38.950;2023-06-24T11:04:55;7.03;;;2.05;;
64637;SDS011;51049;45.046;38.950;2023-06-24T11:07:29;5.05;;;1.95;;
64637;SDS011;51049;45.046;38.950;2023-06-24T11:12:33;6.72;;;2.20;;
64637;SDS011;51049;45.046;38.950;2023-06-24T11:15:10;7.93;;;2.20;;
64637;SDS011;51049;45.046;38.950;2023-06-24T11:17:38;7.75;;;1.80;;
64637;SDS011;51049;45.046;38.950;2023-06-24T11:20:11;6.10;;;2.22;;
64637;SDS011;51049;45.046;38.950;2023-06-24T11:22:39;6.80;;;2.60;;
64637;SDS011;51049;45.046;38.950;2023-06-24T11:25:06;3.80;;;1.92;;
64637;SDS011;51049;45.046;38.950;2023-06-24T11:27:39;6.20;;;2.35;;
64637;SDS011;51049;45.046;38.950;2023-06-24T11:30:05;6.45;;;2.53;;
64637;SDS011;51049;45.046;38.950;2023-06-24T11:32:38;5.45;;;2.92;;
64637;SDS011;51049;45.046;38.950;2023-06-24T11:35:09;6.53;;;2.70;;
64637;SDS011;51049;45.046;38.950;2023-06-24T11:37:36;4.55;;;2.47;;
64637;SDS011;51049;45.046;38.950;2023-06-24T11:40:03;4.05;;;2.40;;
64637;SDS011;51049;45.046;38.950;2023-06-24T11:42:31;7.28;;;2.60;;
64637;SDS011;51049;45.046;38.950;2023-06-24T11:45:01;7.75;;;2.63;;
64637;SDS011;51049;45.046;38.950;2023-06-24T11:47:35;6.68;;;2.58;;
64637;SDS011;51049;45.046;38.950;2023-06-24T11:50:02;9.60;;;2.55;;
64637;SDS011;51049;45.046;38.950;2023-06-24T11:52:40;7.78;;;2.53;;
64637;SDS011;51049;45.046;38.950;2023-06-24T11:55:16;7.00;;;2.30;;
64637;SDS011;51049;45.046;38.950;2023-06-24T11:57:52;5.97;;;2.85;;
64637;SDS011;51049;45.046;38.950;2023-06-24T12:00:30;8.50;;;2.85;;
64637;SDS011;51049;45.046;38.950;2023-06-24T12:02:57;5.40;;;2.35;;
64637;SDS011;51049;45.046;38.950;2023-06-24T12:05:31;7.75;;;2.70;;
64637;SDS011;51049;45.046;38.950;2023-06-24T12:08:03;8.18;;;2.42;;
64637;SDS011;51049;45.046;38.950;2023-06-24T12:10:31;8.57;;;2.72;;
64637;SDS011;51049;45.046;38.950;2023-06-24T12:12:59;6.35;;;2.53;;
64637;SDS011;51049;45.046;38.950;2023-06-24T12:15:25;5.82;;;2.75;;
64637;SDS011;51049;45.046;38.950;2023-06-24T12:17:52;8.05;;;2.78;;
64637;SDS011;51049;45.046;38.950;2023-06-24T12:20:19;5.00;;;2.20;;
64637;SDS011;51049;45.046;38.950;2023-06-24T12:22:46;6.93;;;2.40;;
64637;SDS011;51049;45.046;38.950;2023-06-24T12:25:13;4.88;;;2.60;;
64637;SDS011;51049;45.046;38.950;2023-06-24T12:27:39;5.85;;;2.65;;
64637;SDS011;51049;45.046;38.950;2023-06-24T12:30:07;6.35;;;2.65;;
64637;SDS011;51049;45.046;38.950;2023-06-24T12:32:34;8.70;;;2.67;;
64637;SDS011;51049;45.046;38.950;2023-06-24T12:35:01;4.68;;;2.60;;
64637;SDS011;51049;45.046;38.950;2023-06-24T12:37:32;6.05;;;2.38;;
64637;SDS011;51049;45.046;38.950;2023-06-24T12:39:59;5.32;;;2.60;;
64637;SDS011;51049;45.046;38.950;2023-06-24T12:42:25;5.28;;;2.45;;
64637;SDS011;51049;45.046;38.950;2023-06-24T12:44:52;7.15;;;2.67;;
64637;SDS011;51049;45.046;38.950;2023-06-24T12:47:18;6.78;;;2.53;;
64637;SDS011;51049;45.046;38.950;2023-06-24T12:49:44;6.22;;;2.55;;
64637;SDS011;51049;45.046;38.950;2023-06-24T12:52:11;5.30;;;2.63;;
64637;SDS011;51049;45.046;38.950;2023-06-24T12:54:38;6.75;;;2.58;;
64637;SDS011;51049;45.046;38.950;2023-06-24T12:57:04;5.95;;;2.72;;
64637;SDS011;51049;45.046;38.950;2023-06-24T12:59:31;10.20;;;2.70;;
64637;SDS011;51049;45.046;38.950;2023-06-24T13:01:57;5.55;;;2.50;;
64637;SDS011;51049;45.046;38.950;2023-06-24T13:04:23;7.55;;;2.40;;
64637;SDS011;51049;45.046;38.950;2023-06-24T13:06:52;5.47;;;2.65;;
64637;SDS011;51049;45.046;38.950;2023-06-24T13:09:19;5.57;;;2.38;;
64637;SDS011;51049;45.046;38.950;2023-06-24T13:11:46;7.78;;;2.60;;
64637;SDS011;51049;45.046;38.950;2023-06-24T13:14:12;5.47;;;2.20;;
64637;SDS011;51049;45.046;38.950;2023-06-24T13:16:39;6.22;;;2.30;;
64637;SDS011;51049;45.046;38.950;2023-06-24T13:19:05;5.20;;;2.33;;
64637;SDS011;51049;45.046;38.950;2023-06-24T13:21:31;7.72;;;2.65;;
64637;SDS011;51049;45.046;38.950;2023-06-24T13:23:57;5.20;;;2.15;;
64637;SDS011;51049;45.046;38.950;2023-06-24T13:26:23;9.57;;;2.50;;
64637;SDS011;51049;45.046;38.950;2023-06-24T13:28:49;10.80;;;2.70;;
64637;SDS011;51049;45.046;38.950;2023-06-24T13:31:15;6.30;;;2.58;;
64637;SDS011;51049;45.046;38.950;2023-06-24T13:33:42;4.55;;;2.38;;
64637;SDS011;51049;45.046;38.950;2023-06-24T13:36:09;9.23;;;2.97;;
64637;SDS011;51049;45.046;38.950;2023-06-24T13:38:53;8.25;;;2.88;;
64637;SDS011;51049;45.046;38.950;2023-06-24T13:41:19;4.47;;;2.63;;
64637;SDS011;51049;45.046;38.950;2023-06-24T13:43:45;5.13;;;2.40;;
64637;SDS011;51049;45.046;38.950;2023-06-24T13:46:11;7.85;;;2.72;;
64637;SDS011;51049;45.046;38.950;2023-06-24T13:48:37;8.35;;;3.15;;
64637;SDS011;51049;45.046;38.950;2023-06-24T13:51:03;6.43;;;2.75;;
64637;SDS011;51049;45.046;38.950;2023-06-24T13:53:29;8.10;;;2.78;;
64637;SDS011;51049;45.046;38.950;2023-06-24T13:55:55;6.60;;;2.53;;
64637;SDS011;51049;45.046;38.950;2023-06-24T13:58:21;7.30;;;3.13;;
64637;SDS011;51049;45.046;38.950;2023-06-24T14:00:47;7.53;;;2.88;;
64637;SDS011;51049;45.046;38.950;2023-06-24T14:03:13;7.53;;;2.83;;
64637;SDS011;51049;45.046;38.950;2023-06-24T14:05:39;3.42;;;2.10;;
64637;SDS011;51049;45.046;38.950;2023-06-24T14:08:04;7.03;;;2.50;;
64637;SDS011;51049;45.046;38.950;2023-06-24T14:10:30;5.55;;;2.22;;
64637;SDS011;51049;45.046;38.950;2023-06-24T14:12:56;4.85;;;2.33;;
64637;SDS011;51049;45.046;38.950;2023-06-24T14:15:22;5.45;;;2.50;;
64637;SDS011;51049;45.046;38.950;2023-06-24T14:17:48;6.50;;;2.38;;
64637;SDS011;51049;45.046;38.950;2023-06-24T14:20:14;4.93;;;2.40;;
64637;SDS011;51049;45.046;38.950;2023-06-24T14:22:40;6.60;;;2.47;;
64637;SDS011;51049;45.046;38.950;2023-06-24T14:25:07;5.22;;;2.50;;
64637;SDS011;51049;45.046;38.950;2023-06-24T14:27:33;5.53;;;2.60;;
64637;SDS011;51049;45.046;38.950;2023-06-24T14:29:59;5.43;;;2.80;;
64637;SDS011;51049;45.046;38.950;2023-06-24T14:32:25;5.07;;;2.83;;
64637;SDS011;51049;45.046;38.950;2023-06-24T14:34:50;5.55;;;2.38;;
64637;SDS011;51049;45.046;38.950;2023-06-24T14:37:16;10.18;;;2.80;;
64637;SDS011;51049;45.046;38.950;2023-06-24T14:39:42;5.25;;;2.40;;
64637;SDS011;51049;45.046;38.950;2023-06-24T14:42:08;5.15;;;2.58;;
64637;SDS011;51049;45.046;38.950;2023-06-24T14:44:34;5.60;;;2.55;;
64637;SDS011;51049;45.046;38.950;2023-06-24T14:47:00;6.40;;;2.85;;
64637;SDS011;51049;45.046;38.950;2023-06-24T14:49:26;10.48;;;2.38;;
64637;SDS011;51049;45.046;38.950;2023-06-24T14:51:52;8.82;;;2.60;;
64637;SDS011;51049;45.046;38.950;2023-06-24T14:54:18;8.77;;;3.85;;
64637;SDS011;51049;45.046;38.950;2023-06-24T14:56:44;12.85;;;3.63;;
64637;SDS011;51049;45.046;38.950;2023-06-24T14:59:11;10.25;;;2.92;;
64637;SDS011;51049;45.046;38.950;2023-06-24T15:01:37;6.32;;;2.97;;